Jameson, Missouri
Current Conditions -  °F | °C
As of 10:53 AM on Friday 28 Nov 2014 (Local Time) from KLWD Reporting Station
Clear Clear  
Wind Chill: 31°   Ceiling: Unl
Heat Index: 39°   Visibility: 10mi
Dew Point: 28°   Wind: 14mph
Humidity: 65%   Direction: 200°SSW
Pressure: 29.89"   Gusts: NA
Location:  40.01°N, 93.98°W
Report Text: KLWD 281653Z AUTO 20012KT 10SM CLR 04/M02 A2989 RMK AO2 SLP133 T00391022
Loading
Personal Weather Stations






























Interactive Weather Map New forecast layout! Learn more

10-Day Weather Forecast

Advertisements
Track Severe Weather on mobile